createdAt,value
2017-10-02T00:00:38.090Z,101015
2017-10-02T00:03:06.211Z,100984
2017-10-02T00:05:34.358Z,101014
2017-10-02T00:08:02.630Z,101003
2017-10-02T00:10:31.218Z,100994
2017-10-02T00:13:00.066Z,100992
2017-10-02T00:15:28.220Z,100987
2017-10-02T00:17:56.346Z,101000
2017-10-02T00:20:24.489Z,100997
2017-10-02T00:22:52.626Z,100996
2017-10-02T00:25:20.769Z,100986
2017-10-02T00:27:49.092Z,100982
2017-10-02T00:30:17.218Z,100979
2017-10-02T00:32:46.106Z,100961
2017-10-02T00:35:15.406Z,100965
2017-10-02T00:37:44.302Z,100962
2017-10-02T00:40:13.186Z,100945
2017-10-02T00:42:42.110Z,100945
2017-10-02T00:45:10.275Z,100927
2017-10-02T00:47:38.427Z,100928
2017-10-02T00:50:07.289Z,100916
2017-10-02T00:52:35.518Z,100911
2017-10-02T00:55:03.823Z,100901
2017-10-02T00:57:32.424Z,100895
2017-10-02T01:00:00.600Z,100893
2017-10-02T01:02:28.814Z,100887
2017-10-02T01:04:56.970Z,100888
2017-10-02T01:07:25.242Z,100889
2017-10-02T01:09:53.414Z,100883
2017-10-02T01:12:21.717Z,100877
2017-10-02T01:14:49.871Z,100863
2017-10-02T01:17:18.038Z,100860
2017-10-02T01:19:46.170Z,100851
2017-10-02T01:22:14.286Z,100865
2017-10-02T01:24:42.841Z,100854
2017-10-02T01:27:10.970Z,100860
2017-10-02T01:29:39.115Z,100850
2017-10-02T01:32:07.247Z,100862
2017-10-02T01:34:35.400Z,100880
2017-10-02T01:37:03.531Z,100878
2017-10-02T01:39:31.706Z,100881
2017-10-02T01:42:01.354Z,100888
2017-10-02T01:44:30.235Z,100888
2017-10-02T01:46:59.157Z,100881
2017-10-02T01:49:27.298Z,100879
2017-10-02T01:51:55.882Z,100876
2017-10-02T01:54:24.742Z,100868
2017-10-02T01:56:52.870Z,100858
2017-10-02T01:59:21.016Z,100862
2017-10-02T02:01:49.130Z,100856
2017-10-02T02:04:17.262Z,100838
2017-10-02T02:06:46.118Z,100836
2017-10-02T02:09:14.262Z,100820
2017-10-02T02:11:42.398Z,100830
2017-10-02T02:14:10.535Z,100820
2017-10-02T02:16:38.670Z,100822
2017-10-02T02:19:08.145Z,100813
2017-10-02T02:21:36.300Z,100801
2017-10-02T02:24:04.426Z,100801
2017-10-02T02:26:32.574Z,100807
2017-10-02T02:29:01.483Z,100794
2017-10-02T02:31:29.594Z,100793
2017-10-02T02:33:57.730Z,100784
2017-10-02T02:36:25.865Z,100778
2017-10-02T02:38:53.974Z,100761
2017-10-02T02:41:22.122Z,100759
2017-10-02T02:43:50.743Z,100763
2017-10-02T02:46:18.867Z,100759
2017-10-02T02:48:47.744Z,100753
2017-10-02T02:51:15.878Z,100752
2017-10-02T02:53:43.979Z,100763
2017-10-02T02:56:12.114Z,100757
2017-10-02T02:58:40.218Z,100756
2017-10-02T03:01:08.342Z,100748
2017-10-02T03:03:37.030Z,100737
2017-10-02T03:06:05.151Z,100742
2017-10-02T03:08:33.292Z,100735
2017-10-02T03:14:32.761Z,100716
2017-10-02T03:17:01.146Z,100710
2017-10-02T03:19:29.294Z,100716
2017-10-02T03:21:57.422Z,100705
2017-10-02T03:24:25.578Z,100706
2017-10-02T03:26:54.099Z,100706
2017-10-02T03:29:22.402Z,100708
2017-10-02T03:31:50.526Z,100685
2017-10-02T03:34:18.653Z,100692
2017-10-02T03:36:46.798Z,100681
2017-10-02T03:39:15.662Z,100680
2017-10-02T03:41:43.778Z,100679
2017-10-02T03:44:11.926Z,100677
2017-10-02T03:46:40.502Z,100675
2017-10-02T03:49:09.398Z,100666
2017-10-02T03:51:38.282Z,100666
2017-10-02T03:54:07.179Z,100663
2017-10-02T03:56:36.098Z,100664
2017-10-02T03:59:04.271Z,100663
2017-10-02T04:01:32.390Z,100644
2017-10-02T04:04:00.546Z,100643
2017-10-02T04:06:28.942Z,100649
2017-10-02T04:08:57.066Z,100640
2017-10-02T04:11:25.190Z,100638
2017-10-02T04:13:53.355Z,100644
2017-10-02T04:16:21.538Z,100620
2017-10-02T04:18:49.659Z,100625
2017-10-02T04:21:17.817Z,100614
2017-10-02T04:23:47.134Z,100609
2017-10-02T04:26:15.261Z,100608
2017-10-02T04:28:43.371Z,100604
2017-10-02T04:31:12.226Z,100595
2017-10-02T04:33:40.358Z,100583
2017-10-02T04:36:08.507Z,100583
2017-10-02T04:38:37.362Z,100582
2017-10-02T04:41:05.468Z,100576
2017-10-02T04:43:34.358Z,100564
2017-10-02T04:46:03.440Z,100566
2017-10-02T04:48:32.754Z,100563
2017-10-02T04:51:01.602Z,100549
2017-10-02T04:53:29.722Z,100551
2017-10-02T04:55:58.605Z,100546
2017-10-02T04:58:27.458Z,100548
2017-10-02T05:00:55.568Z,100553
2017-10-02T05:03:24.406Z,100546
2017-10-02T05:05:52.531Z,100535
2017-10-02T05:08:21.826Z,100539
2017-10-02T05:10:50.694Z,100534
2017-10-02T05:13:18.859Z,100533
2017-10-02T05:15:46.962Z,100525
2017-10-02T05:18:15.114Z,100525
2017-10-02T05:20:43.246Z,100519
2017-10-02T05:23:11.447Z,100530
2017-10-02T05:25:39.550Z,100506
2017-10-02T05:28:08.073Z,100511
2017-10-02T05:30:36.243Z,100501
2017-10-02T05:33:04.404Z,100494
2017-10-02T05:35:33.293Z,100491
2017-10-02T05:38:02.162Z,100506
2017-10-02T05:40:30.274Z,100491
2017-10-02T05:42:58.406Z,100486
2017-10-02T05:45:26.501Z,100488
2017-10-02T05:47:55.079Z,100469
2017-10-02T05:50:23.930Z,100459
2017-10-02T05:52:52.449Z,100462
2017-10-02T05:55:21.298Z,100462
2017-10-02T05:57:49.429Z,100454
2017-10-02T06:00:17.542Z,100451
2017-10-02T06:02:45.662Z,100448
2017-10-02T06:05:13.775Z,100449
2017-10-02T06:07:41.907Z,100442
2017-10-02T06:10:10.750Z,100443
2017-10-02T06:12:38.866Z,100441
2017-10-02T06:15:07.731Z,100428
2017-10-02T06:17:35.853Z,100425
2017-10-02T06:20:04.022Z,100426
2017-10-02T06:22:32.150Z,100425
2017-10-02T06:25:00.258Z,100410
2017-10-02T06:27:29.134Z,100412
2017-10-02T06:29:57.975Z,100405
2017-10-02T06:32:26.126Z,100422
2017-10-02T06:34:54.278Z,100411
2017-10-02T06:37:22.438Z,100406
2017-10-02T06:39:50.574Z,100393
2017-10-02T06:42:19.310Z,100420
2017-10-02T06:44:47.450Z,100412
2017-10-02T06:47:15.626Z,100399
2017-10-02T06:49:43.776Z,100397
2017-10-02T06:52:11.905Z,100395
2017-10-02T06:54:40.726Z,100389
2017-10-02T06:57:08.906Z,100394
2017-10-02T06:59:37.034Z,100390
2017-10-02T07:02:07.056Z,100388
2017-10-02T07:04:35.956Z,100384
2017-10-02T07:07:04.959Z,100391
2017-10-02T07:09:33.054Z,100392
2017-10-02T07:12:01.147Z,100383
2017-10-02T07:14:29.278Z,100386
2017-10-02T07:16:58.110Z,100385
2017-10-02T07:19:27.102Z,100390
2017-10-02T07:21:55.240Z,100393
2017-10-02T07:24:23.851Z,100392
2017-10-02T07:26:52.041Z,100213
2017-10-02T07:29:20.158Z,100393
2017-10-02T07:31:49.026Z,100396
2017-10-02T07:34:17.133Z,100386
2017-10-02T07:36:45.260Z,100398
2017-10-02T07:39:13.387Z,100388
2017-10-02T07:41:41.686Z,100380
2017-10-02T07:44:09.834Z,100392
2017-10-02T07:46:38.035Z,100387
2017-10-02T07:49:06.142Z,100383
2017-10-02T07:51:34.850Z,100383
2017-10-02T07:54:03.746Z,100383
2017-10-02T07:56:31.886Z,100376
2017-10-02T07:59:01.509Z,100372
2017-10-02T08:01:29.642Z,100379
2017-10-02T08:03:58.219Z,100379
2017-10-02T08:06:26.370Z,100380
2017-10-02T08:08:54.494Z,100382
2017-10-02T08:11:22.603Z,100369
2017-10-02T08:13:50.738Z,100385
2017-10-02T08:16:18.847Z,100353
2017-10-02T08:18:47.422Z,100380
2017-10-02T08:21:16.282Z,100368
2017-10-02T08:23:44.383Z,100364
2017-10-02T08:26:12.503Z,100348
2017-10-02T08:28:40.626Z,100350
2017-10-02T08:31:08.770Z,100358
2017-10-02T08:33:36.947Z,100361
2017-10-02T08:36:05.169Z,100363
2017-10-02T08:38:33.339Z,100364
2017-10-02T08:41:02.210Z,100370
2017-10-02T08:43:31.752Z,100371
2017-10-02T08:46:00.186Z,100378
2017-10-02T08:48:28.316Z,100373
2017-10-02T08:50:56.430Z,100380
2017-10-02T08:53:24.819Z,100380
2017-10-02T08:55:52.937Z,100376
2017-10-02T08:58:21.066Z,100375
2017-10-02T09:00:49.208Z,100370
2017-10-02T09:03:17.422Z,100350
2017-10-02T09:05:46.718Z,100340
2017-10-02T09:08:14.855Z,100332
2017-10-02T09:10:43.014Z,100326
2017-10-02T09:13:11.142Z,100323
2017-10-02T09:15:39.273Z,100346
2017-10-02T09:18:07.386Z,100351
2017-10-02T09:20:35.539Z,100346
2017-10-02T09:23:03.665Z,100360
2017-10-02T09:25:31.797Z,100354
2017-10-02T09:27:59.941Z,100356
2017-10-02T09:30:28.094Z,100353
2017-10-02T09:32:56.227Z,100352
2017-10-02T09:35:24.356Z,100347
2017-10-02T09:37:52.495Z,100342
2017-10-02T09:40:20.651Z,100356
2017-10-02T09:42:49.533Z,100348
2017-10-02T09:45:17.878Z,100344
2017-10-02T09:47:45.999Z,100342
2017-10-02T09:50:14.422Z,100331
2017-10-02T09:52:42.558Z,100337
2017-10-02T09:55:10.775Z,100325
2017-10-02T09:57:38.906Z,100335
2017-10-02T10:00:07.062Z,100324
2017-10-02T10:02:35.183Z,100320
2017-10-02T10:05:03.691Z,100332
2017-10-02T10:07:31.802Z,100335
2017-10-02T10:10:00.658Z,100330
2017-10-02T10:12:28.799Z,100339
2017-10-02T10:14:57.246Z,100331
2017-10-02T10:17:26.170Z,100335
2017-10-02T10:19:54.307Z,100337
2017-10-02T10:22:22.436Z,100335
2017-10-02T10:24:50.606Z,100335
2017-10-02T10:27:18.730Z,100343
2017-10-02T10:29:46.870Z,100335
2017-10-02T10:32:15.447Z,100344
2017-10-02T10:34:43.554Z,100339
2017-10-02T10:37:11.727Z,100343
2017-10-02T10:39:39.868Z,100334
2017-10-02T10:42:08.010Z,100325
2017-10-02T10:44:36.147Z,100325
2017-10-02T10:47:04.629Z,100333
2017-10-02T10:49:32.777Z,100335
2017-10-02T10:52:01.097Z,100333
2017-10-02T10:54:29.201Z,100338
2017-10-02T10:56:57.318Z,100337
2017-10-02T10:59:25.533Z,100324
2017-10-02T11:01:54.126Z,100324
2017-10-02T11:04:22.246Z,100319
2017-10-02T11:06:50.376Z,100306
2017-10-02T11:09:18.494Z,100321
2017-10-02T11:11:46.631Z,100334
2017-10-02T11:14:14.739Z,100321
2017-10-02T11:16:43.050Z,100321
2017-10-02T11:19:11.205Z,100335
2017-10-02T11:21:39.383Z,100326
2017-10-02T11:24:07.483Z,100339
2017-10-02T11:26:35.609Z,100345
2017-10-02T11:29:03.738Z,100347
2017-10-02T11:31:31.851Z,100342
2017-10-02T11:33:59.996Z,100343
2017-10-02T11:36:28.198Z,100339
2017-10-02T11:38:56.967Z,100335
2017-10-02T11:41:25.058Z,100336
2017-10-02T11:43:53.189Z,100334
2017-10-02T11:46:21.606Z,100325
2017-10-02T11:48:49.740Z,100325
2017-10-02T11:51:17.882Z,100320
2017-10-02T11:53:45.968Z,100316
2017-10-02T11:56:14.338Z,100315
2017-10-02T11:58:43.198Z,100322
2017-10-02T12:01:11.413Z,100318
2017-10-02T12:03:39.543Z,100317
2017-10-02T12:06:07.672Z,100317
2017-10-02T12:08:35.827Z,100318
2017-10-02T12:11:05.147Z,100324
2017-10-02T12:13:33.263Z,100323
2017-10-02T12:16:01.411Z,100326
2017-10-02T12:18:29.549Z,100331
2017-10-02T12:20:58.430Z,100330
2017-10-02T12:23:27.315Z,100333
2017-10-02T12:25:56.922Z,100336
2017-10-02T12:28:25.064Z,100334
2017-10-02T12:30:53.192Z,100335
2017-10-02T12:33:21.303Z,100340
2017-10-02T12:35:49.846Z,100336
2017-10-02T12:38:18.698Z,100335
2017-10-02T12:40:46.809Z,100344
2017-10-02T12:43:15.718Z,100331
2017-10-02T12:45:43.862Z,100336
2017-10-02T12:48:12.000Z,100326
2017-10-02T12:50:40.107Z,100325
2017-10-02T12:53:08.270Z,100323
2017-10-02T12:55:36.424Z,100300
2017-10-02T12:58:04.982Z,100314
2017-10-02T13:00:33.078Z,100321
2017-10-02T13:03:01.175Z,100341
2017-10-02T13:05:29.298Z,100331
2017-10-02T13:07:57.418Z,100335
2017-10-02T13:10:26.331Z,100325
2017-10-02T13:12:55.631Z,100342
2017-10-02T13:15:24.509Z,100347
2017-10-02T13:17:52.658Z,100332
2017-10-02T13:20:20.817Z,100334
2017-10-02T13:22:48.943Z,100335
2017-10-02T13:25:17.841Z,100335
2017-10-02T13:27:46.722Z,100325
2017-10-02T13:30:15.692Z,100322
2017-10-02T13:32:43.871Z,100331
2017-10-02T13:35:11.987Z,100324
2017-10-02T13:37:40.419Z,100322
2017-10-02T13:40:08.519Z,100312
2017-10-02T13:42:37.402Z,100317
2017-10-02T13:45:06.322Z,100325
2017-10-02T13:47:34.759Z,100311
2017-10-02T13:50:02.955Z,100321
2017-10-02T13:52:31.077Z,100324
2017-10-02T13:54:59.177Z,100318
2017-10-02T13:57:27.338Z,100324
2017-10-02T13:59:55.740Z,100319
2017-10-02T14:02:24.253Z,100318
2017-10-02T14:04:52.431Z,100315
2017-10-02T14:07:20.630Z,100314
2017-10-02T14:09:48.736Z,100324
2017-10-02T14:12:16.926Z,100338
2017-10-02T14:14:45.838Z,100339
2017-10-02T14:17:14.745Z,100320
2017-10-02T14:19:42.856Z,100320
2017-10-02T14:22:10.966Z,100319
2017-10-02T14:24:39.098Z,100312
2017-10-02T14:27:07.602Z,100316
2017-10-02T14:29:35.750Z,100306
2017-10-02T14:32:03.903Z,100319
2017-10-02T14:34:32.022Z,100324
2017-10-02T14:37:00.170Z,100311
2017-10-02T14:39:28.318Z,100331
2017-10-02T14:41:56.458Z,100333
2017-10-02T14:44:25.647Z,100320
2017-10-02T14:46:53.786Z,100337
2017-10-02T14:49:21.870Z,100323
2017-10-02T14:51:51.466Z,100292
2017-10-02T14:54:19.604Z,100303
2017-10-02T14:56:47.759Z,100319
2017-10-02T14:59:16.890Z,100324
2017-10-02T15:01:45.056Z,100321
2017-10-02T15:04:13.226Z,100311
2017-10-02T15:06:41.674Z,100319
2017-10-02T15:09:10.565Z,100325
2017-10-02T15:11:38.734Z,100318
2017-10-02T15:14:06.910Z,100333
2017-10-02T15:16:35.268Z,100344
2017-10-02T15:19:03.427Z,100351
2017-10-02T15:21:31.570Z,100345
2017-10-02T15:23:59.711Z,100336
2017-10-02T15:26:27.845Z,100325
2017-10-02T15:28:56.039Z,100307
2017-10-02T15:31:24.168Z,100320
2017-10-02T15:33:52.318Z,100315
2017-10-02T15:36:20.419Z,100323
2017-10-02T15:38:48.560Z,100317
2017-10-02T15:41:17.455Z,100294
2017-10-02T15:43:46.327Z,100312
2017-10-02T15:46:14.898Z,100325
2017-10-02T15:48:43.054Z,100316
2017-10-02T15:51:11.696Z,100337
2017-10-02T15:53:40.654Z,100339
2017-10-02T15:56:09.506Z,100330
2017-10-02T15:58:37.650Z,100346
2017-10-02T16:01:05.790Z,100335
2017-10-02T16:03:33.918Z,100345
2017-10-02T16:06:02.070Z,100354
2017-10-02T16:08:30.200Z,100347
2017-10-02T16:10:58.342Z,100358
2017-10-02T16:13:26.501Z,100359
2017-10-02T16:15:55.071Z,100361
2017-10-02T16:18:23.212Z,100352
2017-10-02T16:20:51.343Z,100347
2017-10-02T16:23:19.475Z,100332
2017-10-02T16:25:48.387Z,100353
2017-10-02T16:28:16.960Z,100335
2017-10-02T16:30:45.821Z,100346
2017-10-02T16:33:13.993Z,100351
2017-10-02T16:35:42.225Z,100373
2017-10-02T16:38:10.386Z,100365
2017-10-02T16:40:38.510Z,100371
2017-10-02T16:43:06.645Z,100372
2017-10-02T16:45:34.799Z,100352
2017-10-02T16:48:03.382Z,100351
2017-10-02T16:50:32.254Z,100364
2017-10-02T16:53:00.466Z,100360
2017-10-02T16:55:28.611Z,100374
2017-10-02T16:57:57.462Z,100373
2017-10-02T17:00:25.606Z,100383
2017-10-02T17:02:54.083Z,100384
2017-10-02T17:05:22.446Z,100375
2017-10-02T17:07:50.607Z,100375
2017-10-02T17:10:19.491Z,100363
2017-10-02T17:12:48.002Z,100365
2017-10-02T17:15:16.870Z,100365
2017-10-02T17:17:45.199Z,100375
2017-10-02T17:20:13.363Z,100369
2017-10-02T17:22:41.475Z,100375
2017-10-02T17:25:09.623Z,100361
2017-10-02T17:27:37.750Z,100364
2017-10-02T17:30:05.960Z,100357
2017-10-02T17:32:34.075Z,100358
2017-10-02T17:35:02.250Z,100342
2017-10-02T17:37:30.393Z,100335
2017-10-02T17:39:58.527Z,100345
2017-10-02T17:42:27.179Z,100345
2017-10-02T17:44:55.327Z,100330
2017-10-02T17:47:23.457Z,100320
2017-10-02T17:49:52.338Z,100336
2017-10-02T17:52:21.213Z,100340
2017-10-02T17:54:49.726Z,100341
2017-10-02T17:57:18.633Z,100344
2017-10-02T17:59:46.816Z,100361
2017-10-02T18:02:14.954Z,100356
2017-10-02T18:04:43.810Z,100356
2017-10-02T18:07:11.926Z,100353
2017-10-02T18:09:40.983Z,100361
2017-10-02T18:12:09.141Z,100370
2017-10-02T18:14:37.567Z,100374
2017-10-02T18:17:06.617Z,100362
2017-10-02T18:19:34.800Z,100351
2017-10-02T18:22:02.950Z,100354
2017-10-02T18:24:31.116Z,100348
2017-10-02T18:26:59.340Z,100338
2017-10-02T18:29:27.490Z,100355
2017-10-02T18:31:55.598Z,100357
2017-10-02T18:34:23.738Z,100353
2017-10-02T18:36:52.250Z,100359
2017-10-02T18:39:21.134Z,100360
2017-10-02T18:41:49.482Z,100373
2017-10-02T18:44:17.598Z,100353
2017-10-02T18:46:45.740Z,100341
2017-10-02T18:49:13.879Z,100365
2017-10-02T18:51:42.006Z,100338
2017-10-02T18:54:10.162Z,100350
2017-10-02T18:56:38.310Z,100353
2017-10-02T18:59:06.554Z,100359
2017-10-02T19:01:35.148Z,100369
2017-10-02T19:04:03.427Z,100379
2017-10-02T19:06:31.576Z,100374
2017-10-02T19:08:59.699Z,100367
2017-10-02T19:11:27.824Z,100347
2017-10-02T19:13:56.678Z,100352
2017-10-02T19:16:24.804Z,100358
2017-10-02T19:18:53.665Z,100362
2017-10-02T19:21:21.766Z,100376
2017-10-02T19:23:49.915Z,100354
2017-10-02T19:26:18.046Z,100353
2017-10-02T19:28:46.285Z,100356
2017-10-02T19:31:14.457Z,100361
2017-10-02T19:33:43.368Z,100367
2017-10-02T19:36:11.522Z,100359
2017-10-02T19:38:39.658Z,100362
2017-10-02T19:41:07.802Z,100366
2017-10-02T19:43:35.942Z,100371
2017-10-02T19:46:05.282Z,100390
2017-10-02T19:48:33.407Z,100370
2017-10-02T19:51:01.537Z,100362
2017-10-02T19:53:29.656Z,100358
2017-10-02T19:55:58.546Z,100361
2017-10-02T19:58:27.443Z,100360
2017-10-02T20:00:56.328Z,100355
2017-10-02T20:03:25.680Z,100366
2017-10-02T20:05:53.842Z,100364
2017-10-02T20:08:21.974Z,100368
2017-10-02T20:10:50.861Z,100353
2017-10-02T20:13:18.986Z,100361
2017-10-02T20:15:47.190Z,100362
2017-10-02T20:18:15.694Z,100356
2017-10-02T20:20:43.910Z,100354
2017-10-02T20:23:12.046Z,100344
2017-10-02T20:25:40.963Z,100339
2017-10-02T20:28:09.156Z,100339
2017-10-02T20:30:37.497Z,100343
2017-10-02T20:33:05.649Z,100333
2017-10-02T20:35:33.817Z,100309
2017-10-02T20:38:01.953Z,100323
2017-10-02T20:40:30.194Z,100312
2017-10-02T20:42:58.787Z,100310
2017-10-02T20:45:27.771Z,100304
2017-10-02T20:47:55.991Z,100301
2017-10-02T20:50:24.153Z,100316
2017-10-02T20:52:52.289Z,100341
2017-10-02T20:55:21.135Z,100322
2017-10-02T20:57:49.482Z,100326
2017-10-02T21:00:17.638Z,100330
2017-10-02T21:02:46.007Z,100344
2017-10-02T21:05:14.873Z,100346
2017-10-02T21:07:43.007Z,100348
2017-10-02T21:10:11.122Z,100343
2017-10-02T21:12:39.292Z,100359
2017-10-02T21:15:07.460Z,100348
2017-10-02T21:17:35.616Z,100340
2017-10-02T21:20:03.791Z,100346
2017-10-02T21:22:31.991Z,100335
2017-10-02T21:25:00.299Z,100334
2017-10-02T21:27:29.156Z,100332
2017-10-02T21:29:57.338Z,100324
2017-10-02T21:32:26.217Z,100313
2017-10-02T21:34:54.374Z,100313
2017-10-02T21:37:22.494Z,100308
2017-10-02T21:39:50.634Z,100325
2017-10-02T21:42:18.760Z,100335
2017-10-02T21:44:47.366Z,100325
2017-10-02T21:47:15.818Z,100311
2017-10-02T21:49:44.691Z,100316
2017-10-02T21:52:12.834Z,100311
2017-10-02T21:54:40.983Z,100314
2017-10-02T21:57:09.106Z,100314
2017-10-02T21:59:37.211Z,100311
2017-10-02T22:02:06.519Z,100308
2017-10-02T22:04:34.874Z,100310
2017-10-02T22:07:02.999Z,100311
2017-10-02T22:09:31.104Z,100316
2017-10-02T22:11:59.348Z,100304
2017-10-02T22:14:27.490Z,100303
2017-10-02T22:16:55.622Z,100299
2017-10-02T22:19:23.772Z,100297
2017-10-02T22:21:51.918Z,100302
2017-10-02T22:24:20.274Z,100291
2017-10-02T22:26:49.006Z,100294
2017-10-02T22:29:17.227Z,100302
2017-10-02T22:31:45.379Z,100306
2017-10-02T22:34:13.566Z,100306
2017-10-02T22:36:41.734Z,100321
2017-10-02T22:39:10.022Z,100316
2017-10-02T22:41:38.250Z,100319
2017-10-02T22:44:06.402Z,100323
2017-10-02T22:46:34.558Z,100317
2017-10-02T22:49:02.686Z,100313
2017-10-02T22:51:31.194Z,100308
2017-10-02T22:53:59.484Z,100298
2017-10-02T22:56:28.374Z,100305
2017-10-02T22:58:57.258Z,100309
2017-10-02T23:01:26.470Z,100303
2017-10-02T23:03:54.588Z,100314
2017-10-02T23:06:23.667Z,100314
2017-10-02T23:08:51.804Z,100308
2017-10-02T23:11:19.942Z,100298
2017-10-02T23:13:48.394Z,100312
2017-10-02T23:16:16.546Z,100319
2017-10-02T23:18:44.667Z,100300
2017-10-02T23:21:12.812Z,100301
2017-10-02T23:23:40.930Z,100303
2017-10-02T23:26:09.056Z,100275
2017-10-02T23:28:37.190Z,100299
2017-10-02T23:31:05.608Z,100303
2017-10-02T23:33:33.744Z,100294
2017-10-02T23:36:01.882Z,100306
2017-10-02T23:38:29.999Z,100300
2017-10-02T23:40:58.127Z,100308
2017-10-02T23:43:26.367Z,100301
2017-10-02T23:45:54.506Z,100299
2017-10-02T23:48:22.623Z,100189
2017-10-02T23:50:50.750Z,100291
2017-10-02T23:53:18.881Z,100290
2017-10-02T23:55:47.450Z,100294
2017-10-02T23:58:15.574Z,100288
